Observations for JERSEY AIRPORT, United Kingdom (EGJJ)

EGJJ 242020Z AUTO 24011KT 9999 -DZ BKN015/// OVC017/// 11/10 Q1014  
EGJJ 241950Z 24011KT 9999 FEW015 BKN019 11/10 Q1014 
EGJJ 241920Z 24012KT 9999 FEW015 BKN021 11/10 Q1014 
EGJJ 241850Z 25011KT 9999 FEW015 BKN023 11/10 Q1014 
EGJJ 241820Z 25009KT 9999 FEW015 BKN024 12/10 Q1014 
EGJJ 241750Z 25008KT 9999 BKN024 12/10 Q1015
EGJJ 241720Z 26010KT 9999 FEW026 BKN030 13/10 Q1015 
EGJJ 241650Z 25010KT 9999 FEW027 BKN032 13/10 Q1015 
EGJJ 241620Z 25010KT 9999 SCT027 BKN036 13/10 Q1015 
EGJJ 241550Z 25008KT 9999 SCT027 BKN035 14/11 Q1015 
EGJJ 241520Z 24009KT 9999 SCT021 BKN032 13/11 Q1016 
EGJJ 241450Z 22009KT 9999 BKN021 13/11 Q1016
EGJJ 241420Z 19008KT 9999 BKN021 13/10 Q1016
EGJJ 241350Z 18009KT 9999 FEW010 BKN021 13/10 Q1017 
EGJJ 241320Z 19009KT 150V220 9999 FEW005 BKN020 14/10 Q1017 
EGJJ 241250Z 18009KT 9999 FEW005 SCT011 BKN020 14/11 Q1017  
EGJJ 241220Z 18009KT 150V220 9999 FEW005 BKN011 12/10 Q1018 
EGJJ 241150Z 18010KT 9999 FEW005 BKN012 12/10 Q1018 
EGJJ 241120Z 19009KT 160V220 7000 SCT003 BKN010 11/10 Q1018 
EGJJ 241050Z 18009KT 150V210 3000 BR VCFG SCT000 BKN003 11/10 Q1019 
EGJJ 241020Z 19010KT 7000 BKN003 BKN006 11/10 Q1019 
EGJJ 240950Z 20008KT 9999 5000SE SCT003 BKN006 11/09 Q1019  
EGJJ 240920Z 20010KT 9999 BKN003 BKN006 11/09 Q1019 
EGJJ 240850Z 21010KT 9999 FEW004 BKN007 11/09 Q1019 
EGJJ 240820Z 22011KT 9999 BKN007 11/09 Q1019
EGJJ 240750Z 23010KT 9999 BKN006 11/09 Q1019
EGJJ 240720Z 24010KT 8000 BKN005 10/09 Q1019
EGJJ 240650Z 24010KT 7000 SCT005 BKN006 10/09 Q1019 
EGJJ 240620Z 24010KT 9999 5000NE SCT005 BKN006 10/09 Q1019  
EGJJ 240550Z 24009KT 9999 SCT007 BKN009 10/09 Q1019 
EGJJ 240520Z 23010KT 9999 SCT004 BKN006 10/09 Q1019 
EGJJ 240450Z 24012KT 9999 -DZ SCT006 BKN007 10/08 Q1019 
EGJJ 240420Z AUTO 24010KT 9999 OVC008/// 10/08 Q1019
EGJJ 240350Z AUTO 24010KT 9999 OVC008/// 10/08 Q1019
EGJJ 240320Z AUTO 23010KT 9999 OVC009/// 10/08 Q1019
EGJJ 240250Z AUTO 23012KT 9999 OVC010/// 10/08 Q1019
EGJJ 240220Z AUTO 23011KT 9999 OVC012/// 10/08 Q1019
EGJJ 240150Z AUTO 23010KT 9999 FEW014/// OVC017/// 10/08 Q1019  
EGJJ 240120Z AUTO 24013KT 9999 OVC014/// 10/08 Q1019
EGJJ 240050Z AUTO 24014KT 9999 BKN015/// OVC018/// 10/08 Q1020  
EGJJ 240020Z AUTO 25013KT 9999 OVC016/// 10/08 Q1020
EGJJ 232350Z AUTO 26014KT CAVOK 10/07 Q1020 
EGJJ 232320Z AUTO 26013KT CAVOK 09/07 Q1020 
EGJJ 232250Z AUTO 26013KT CAVOK 10/07 Q1020 
EGJJ 232220Z AUTO 26012KT CAVOK 09/07 Q1020 
EGJJ 232150Z AUTO 26012KT CAVOK 09/08 Q1021 
EGJJ 232120Z AUTO 24010KT CAVOK 09/07 Q1021 
EGJJ 232050Z AUTO 24009KT CAVOK 09/07 Q1021 
EGJJ 232020Z AUTO 25009KT CAVOK 09/07 Q1021 
EGJJ 231950Z 25008KT CAVOK 09/07 Q1020